Time;durP1;ratioP1;P1;durP2;ratioP2;P2;SDS_P1;SDS_P2;PMS_P1;PMS_P2;Temp;Humidity;BMP_temperature;BMP_pressure;BME280_temperature;BME280_humidity;BME280_pressure;Samples;Min_cycle;Max_cycle;Signal;HPM_P1;HPM_P2
2021/09/07 00:00:43;;;;;;;9.33;6.78;;;14.10;99.90;;;;;;1980405;72;21071;-75
2021/09/07 00:03:09;;;;;;;7.62;6.30;;;14.00;99.90;;;;;;1971192;72;21476;-75
2021/09/07 00:05:35;;;;;;;11.08;6.95;;;14.00;99.90;;;;;;1974311;73;21483;-75
2021/09/07 00:08:01;;;;;;;6.97;5.97;;;13.90;99.90;;;;;;1971007;72;21459;-75
2021/09/07 00:10:28;;;;;;;8.28;6.10;;;13.90;99.90;;;;;;1974207;72;21444;-75
2021/09/07 00:12:54;;;;;;;9.10;7.37;;;13.90;99.90;;;;;;1974325;72;21529;-76
2021/09/07 00:15:20;;;;;;;8.20;7.00;;;13.80;99.90;;;;;;1975561;72;21483;-75
2021/09/07 00:17:47;;;;;;;10.90;7.12;;;13.80;99.90;;;;;;1978905;72;21055;-75
2021/09/07 00:20:14;;;;;;;7.47;6.65;;;13.80;99.90;;;;;;1980714;72;21106;-75
2021/09/07 00:22:41;;;;;;;7.40;6.12;;;13.70;99.90;;;;;;1973508;72;21063;-76
2021/09/07 00:25:07;;;;;;;8.30;6.60;;;13.70;99.90;;;;;;1968420;72;21073;-75
2021/09/07 00:27:33;;;;;;;10.28;6.75;;;13.60;99.90;;;;;;1974131;72;21095;-75
2021/09/07 00:29:59;;;;;;;14.45;7.65;;;13.60;99.90;;;;;;1979987;72;21063;-75
2021/09/07 00:32:25;;;;;;;8.23;6.58;;;13.60;99.90;;;;;;1969298;72;21057;-75
2021/09/07 00:34:51;;;;;;;11.53;7.22;;;13.50;99.90;;;;;;1982505;72;21063;-75
2021/09/07 00:37:17;;;;;;;10.50;6.90;;;13.60;99.90;;;;;;1974461;72;21126;-75
2021/09/07 00:39:44;;;;;;;8.15;6.58;;;13.50;99.90;;;;;;1967414;72;21062;-75
2021/09/07 00:42:10;;;;;;;9.18;6.87;;;13.50;99.90;;;;;;1977657;72;21125;-75
2021/09/07 00:44:36;;;;;;;10.82;7.92;;;13.40;99.90;;;;;;1967775;72;21035;-74
2021/09/07 00:47:02;;;;;;;12.30;7.67;;;13.40;99.90;;;;;;1974525;72;21117;-75
2021/09/07 00:49:28;;;;;;;8.00;6.80;;;13.40;99.90;;;;;;1970724;72;21067;-74
2021/09/07 00:51:54;;;;;;;15.38;6.78;;;13.30;99.90;;;;;;1974545;73;21059;-75
2021/09/07 00:54:20;;;;;;;9.80;6.75;;;13.30;99.90;;;;;;1974653;72;21033;-75
2021/09/07 00:56:46;;;;;;;9.00;7.20;;;13.20;99.90;;;;;;1982675;72;21193;-75
2021/09/07 00:59:13;;;;;;;7.60;6.65;;;13.20;99.90;;;;;;1978133;72;21556;-75
2021/09/07 01:01:39;;;;;;;10.90;7.60;;;13.20;99.90;;;;;;1984956;72;21491;-75
2021/09/07 01:04:05;;;;;;;8.48;7.22;;;13.20;99.90;;;;;;1978481;72;21540;-75
2021/09/07 01:06:31;;;;;;;10.05;7.33;;;13.10;99.90;;;;;;1976192;72;21548;-75
2021/09/07 01:08:57;;;;;;;12.45;8.80;;;13.10;99.90;;;;;;1974441;73;21540;-75
2021/09/07 01:11:23;;;;;;;7.87;7.08;;;13.10;99.90;;;;;;1971121;72;21479;-75
2021/09/07 01:13:49;;;;;;;11.15;7.70;;;13.10;99.90;;;;;;1974676;72;21564;-75
2021/09/07 01:16:15;;;;;;;10.28;7.50;;;13.10;99.90;;;;;;1976075;72;21114;-75
2021/09/07 01:18:42;;;;;;;10.60;7.47;;;13.00;99.90;;;;;;1970407;72;21067;-75
2021/09/07 01:21:09;;;;;;;10.25;7.45;;;13.00;99.90;;;;;;1977517;72;21031;-75
2021/09/07 01:23:35;;;;;;;10.23;7.87;;;13.00;99.90;;;;;;1980494;72;21063;-75
2021/09/07 01:26:01;;;;;;;11.15;7.78;;;12.90;99.90;;;;;;1971602;72;21074;-75
2021/09/07 01:28:29;;;;;;;14.58;8.05;;;12.90;99.90;;;;;;1973700;72;21067;-74
2021/09/07 01:30:55;;;;;;;8.68;7.67;;;12.90;99.90;;;;;;1974528;73;21035;-75
2021/09/07 01:33:22;;;;;;;11.12;7.90;;;12.90;99.90;;;;;;1972007;72;21047;-76
2021/09/07 01:35:48;;;;;;;8.88;7.53;;;12.80;99.90;;;;;;1976820;72;21106;-75
2021/09/07 01:38:14;;;;;;;8.95;8.00;;;12.80;99.90;;;;;;1970721;72;21044;-75
2021/09/07 01:40:40;;;;;;;10.23;7.60;;;12.80;99.90;;;;;;1973958;72;21031;-75
2021/09/07 01:43:06;;;;;;;8.10;7.17;;;12.80;99.90;;;;;;1967792;72;21120;-75
2021/09/07 01:45:32;;;;;;;11.93;8.50;;;12.70;99.90;;;;;;1974364;73;21074;-75
2021/09/07 01:47:58;;;;;;;9.95;8.28;;;12.70;99.90;;;;;;1969682;72;21027;-75
2021/09/07 01:50:24;;;;;;;8.95;7.87;;;12.70;99.90;;;;;;1970291;72;21148;-75
2021/09/07 01:52:51;;;;;;;10.20;8.28;;;12.70;99.90;;;;;;1968518;72;21132;-75
2021/09/07 01:55:17;;;;;;;11.30;8.38;;;12.70;99.90;;;;;;1968564;72;21132;-76
2021/09/07 01:57:43;;;;;;;14.78;9.30;;;12.60;99.90;;;;;;1974934;72;21539;-75
2021/09/07 02:00:09;;;;;;;12.05;8.38;;;12.60;99.90;;;;;;1983404;72;21032;-75
2021/09/07 02:02:35;;;;;;;15.30;8.45;;;12.60;99.90;;;;;;1970463;72;21622;-75
2021/09/07 02:05:01;;;;;;;8.65;7.72;;;12.60;99.90;;;;;;1975348;72;21448;-75
2021/09/07 02:07:27;;;;;;;10.10;8.98;;;12.60;99.90;;;;;;1972284;72;21553;-75
2021/09/07 02:09:54;;;;;;;14.83;9.33;;;12.50;99.90;;;;;;1983828;72;21507;-75
2021/09/07 02:12:20;;;;;;;10.95;8.13;;;12.50;99.90;;;;;;1973915;72;21078;-75
2021/09/07 02:14:47;;;;;;;17.85;8.85;;;12.50;99.90;;;;;;1975646;72;21031;-75
2021/09/07 02:17:13;;;;;;;15.85;8.50;;;12.50;99.90;;;;;;1982330;72;21148;-75
2021/09/07 02:19:39;;;;;;;10.90;8.55;;;12.50;99.90;;;;;;1976082;72;21168;-75
2021/09/07 02:22:05;;;;;;;13.45;8.83;;;12.40;99.90;;;;;;1984869;72;21056;-75
2021/09/07 02:24:31;;;;;;;8.98;7.97;;;12.40;99.90;;;;;;1971185;72;21062;-75
2021/09/07 02:26:57;;;;;;;9.28;8.30;;;12.40;99.90;;;;;;1974310;73;21170;-75
2021/09/07 02:29:23;;;;;;;10.85;7.92;;;12.40;99.90;;;;;;1971206;72;21171;-75
2021/09/07 02:31:49;;;;;;;11.73;8.55;;;12.40;99.90;;;;;;1973731;72;21035;-76
2021/09/07 02:34:16;;;;;;;9.53;7.85;;;12.40;99.90;;;;;;1974499;73;21055;-76
2021/09/07 02:36:42;;;;;;;11.43;8.15;;;12.30;99.90;;;;;;1967774;72;21058;-76
2021/09/07 02:39:08;;;;;;;14.33;8.33;;;12.30;99.90;;;;;;1973425;72;21182;-76
2021/09/07 02:41:34;;;;;;;13.32;8.53;;;12.30;99.90;;;;;;1977366;72;21122;-75
2021/09/07 02:44:01;;;;;;;9.60;8.43;;;12.30;99.90;;;;;;1974400;72;21063;-76
2021/09/07 02:46:27;;;;;;;14.55;8.35;;;12.30;99.90;;;;;;1974215;72;21110;-76
2021/09/07 02:48:53;;;;;;;15.00;8.30;;;12.30;99.90;;;;;;1974560;73;21165;-76
2021/09/07 02:51:19;;;;;;;9.70;8.35;;;12.20;99.90;;;;;;1974371;73;21048;-75
2021/09/07 02:53:45;;;;;;;11.00;7.92;;;12.20;99.90;;;;;;1974557;73;21024;-76
2021/09/07 02:56:11;;;;;;;10.58;7.85;;;12.10;99.90;;;;;;1970839;72;21129;-75
2021/09/07 02:58:37;;;;;;;11.95;8.78;;;12.10;99.90;;;;;;1983743;72;21059;-76
2021/09/07 03:01:04;;;;;;;12.47;8.65;;;12.00;99.90;;;;;;1974298;73;21087;-75
2021/09/07 03:03:30;;;;;;;12.45;8.65;;;12.10;99.90;;;;;;1974493;73;21125;-75
2021/09/07 03:05:58;;;;;;;11.85;8.23;;;12.00;99.90;;;;;;1965877;72;21082;-75
2021/09/07 03:08:24;;;;;;;11.73;8.85;;;12.00;99.90;;;;;;1970920;72;21088;-75
2021/09/07 03:10:50;;;;;;;11.88;8.95;;;12.00;99.90;;;;;;1977338;72;21123;-75
2021/09/07 03:13:16;;;;;;;11.80;9.03;;;12.00;99.90;;;;;;1974600;73;21056;-75
2021/09/07 03:15:42;;;;;;;11.65;9.13;;;11.90;99.90;;;;;;1973007;72;21160;-75
2021/09/07 03:18:08;;;;;;;14.20;8.53;;;11.90;99.90;;;;;;1972869;72;21476;-75
2021/09/07 03:20:34;;;;;;;11.95;9.55;;;11.90;99.90;;;;;;1971865;72;21466;-75
2021/09/07 03:23:00;;;;;;;11.08;9.13;;;11.90;99.90;;;;;;1975665;72;21580;-75
2021/09/07 03:25:27;;;;;;;17.05;10.00;;;11.90;99.90;;;;;;1977328;72;21471;-75
2021/09/07 03:27:53;;;;;;;15.00;10.20;;;11.90;99.90;;;;;;1974279;72;21500;-76
2021/09/07 03:30:19;;;;;;;12.65;10.28;;;11.90;99.90;;;;;;1977193;72;21545;-75
2021/09/07 03:32:45;;;;;;;11.40;8.70;;;11.90;99.90;;;;;;1970719;72;21548;-76
2021/09/07 03:35:11;;;;;;;17.92;9.65;;;11.90;99.90;;;;;;1967459;72;21429;-75
2021/09/07 03:37:37;;;;;;;17.75;9.48;;;11.90;99.90;;;;;;1971009;72;21058;-74
2021/09/07 03:40:03;;;;;;;14.60;10.08;;;11.90;99.90;;;;;;1971048;72;21110;-75
2021/09/07 03:42:34;;;;;;;9.70;8.78;;;11.90;99.90;;;;;;1967564;72;21113;-75
2021/09/07 03:44:57;;;;;;;11.60;9.68;;;11.80;99.90;;;;;;1970445;72;21030;-75
2021/09/07 03:47:23;;;;;;;10.60;8.78;;;11.80;99.90;;;;;;1974482;73;21152;-75
2021/09/07 03:49:49;;;;;;;12.45;9.78;;;11.80;99.90;;;;;;1967908;72;21058;-75
2021/09/07 03:52:16;;;;;;;18.85;9.60;;;11.80;99.90;;;;;;1975858;72;21465;-75
2021/09/07 03:54:42;;;;;;;9.90;8.68;;;11.80;99.90;;;;;;1974397;72;21488;-76
2021/09/07 03:57:08;;;;;;;16.15;9.85;;;11.80;99.90;;;;;;1974323;72;21463;-75
2021/09/07 03:59:34;;;;;;;10.20;9.13;;;11.70;99.90;;;;;;1973081;72;21481;-76
2021/09/07 04:02:00;;;;;;;11.28;8.95;;;11.70;99.90;;;;;;1943697;72;21452;-76
2021/09/07 04:04:26;;;;;;;10.28;9.23;;;11.70;99.90;;;;;;1971329;72;21524;-76
2021/09/07 04:06:52;;;;;;;10.90;9.80;;;11.70;99.90;;;;;;1983154;72;21487;-75
2021/09/07 04:09:19;;;;;;;14.18;9.20;;;11.60;99.90;;;;;;1987642;72;21465;-75
2021/09/07 04:11:45;;;;;;;13.05;9.50;;;11.60;99.90;;;;;;1974459;73;21126;-75
2021/09/07 04:14:12;;;;;;;14.95;10.45;;;11.60;99.90;;;;;;1971294;72;21526;-75
2021/09/07 04:16:38;;;;;;;10.23;8.93;;;11.60;99.90;;;;;;1974679;73;21504;-76
2021/09/07 04:19:04;;;;;;;12.85;8.58;;;11.60;99.90;;;;;;1974145;72;21596;-75
2021/09/07 04:21:30;;;;;;;11.22;8.95;;;11.60;99.90;;;;;;1975154;72;21554;-76
2021/09/07 04:23:56;;;;;;;12.07;9.50;;;11.60;99.90;;;;;;1971463;72;21466;-76
2021/09/07 04:26:22;;;;;;;11.18;8.95;;;11.60;99.90;;;;;;1976331;72;21472;-75
2021/09/07 04:28:48;;;;;;;16.10;9.85;;;11.60;99.90;;;;;;1971797;72;21511;-75
2021/09/07 04:31:15;;;;;;;12.75;9.70;;;11.50;99.90;;;;;;1972964;72;21496;-76
2021/09/07 04:33:41;;;;;;;15.28;10.08;;;11.50;99.90;;;;;;1972695;72;21162;-76
2021/09/07 04:36:07;;;;;;;12.30;10.10;;;11.50;99.90;;;;;;1982664;72;21067;-75
2021/09/07 04:38:33;;;;;;;11.25;9.13;;;11.50;99.90;;;;;;1974676;72;21328;-76
2021/09/07 04:40:59;;;;;;;18.55;9.55;;;11.60;99.90;;;;;;1974661;72;21065;-75
2021/09/07 04:43:25;;;;;;;11.85;9.73;;;11.50;99.90;;;;;;1971280;72;21054;-76
2021/09/07 04:45:51;;;;;;;13.80;10.40;;;11.60;99.90;;;;;;1974634;72;21076;-75
2021/09/07 04:48:18;;;;;;;13.78;9.20;;;11.60;99.90;;;;;;1970921;72;21113;-74
2021/09/07 04:50:44;;;;;;;13.30;9.73;;;11.60;99.90;;;;;;1974277;72;21180;-74
2021/09/07 04:53:10;;;;;;;16.30;8.93;;;11.60;99.90;;;;;;1971373;72;21091;-74
2021/09/07 04:55:36;;;;;;;12.63;9.55;;;11.60;99.90;;;;;;1972409;72;21054;-75
2021/09/07 04:58:02;;;;;;;11.83;8.90;;;11.60;99.90;;;;;;1987317;72;21030;-75
2021/09/07 05:00:28;;;;;;;12.93;9.90;;;11.60;99.90;;;;;;1978631;72;21479;-76
2021/09/07 05:02:54;;;;;;;13.00;8.98;;;11.60;99.90;;;;;;1979739;72;21457;-74
2021/09/07 05:05:20;;;;;;;15.78;9.68;;;11.60;99.90;;;;;;1971301;72;21519;-75
2021/09/07 05:07:47;;;;;;;11.33;9.80;;;11.60;99.90;;;;;;1967158;72;21528;-75
2021/09/07 05:10:13;;;;;;;10.58;8.48;;;11.60;99.90;;;;;;1982794;72;21043;-75
2021/09/07 05:12:39;;;;;;;14.03;9.53;;;11.70;99.90;;;;;;1967208;72;21071;-74
2021/09/07 05:15:05;;;;;;;11.28;8.93;;;11.80;99.90;;;;;;1987588;72;21055;-74
2021/09/07 05:17:31;;;;;;;19.00;10.32;;;11.80;99.90;;;;;;1979539;72;21052;-75
2021/09/07 05:19:57;;;;;;;11.65;9.68;;;11.80;99.90;;;;;;1974470;72;21113;-74
2021/09/07 05:23:09;;;;;;;12.90;9.60;;;11.90;99.90;;;;;;1974749;73;21047;-73
2021/09/07 05:24:51;;;;;;;12.25;9.40;;;11.90;99.90;;;;;;1949238;72;21066;-75
2021/09/07 05:27:17;;;;;;;14.38;9.80;;;12.00;99.90;;;;;;1976036;72;21436;-75
2021/09/07 05:29:43;;;;;;;13.75;9.73;;;12.00;99.90;;;;;;1979859;72;21783;-74
2021/09/07 05:32:11;;;;;;;11.33;9.08;;;12.00;99.90;;;;;;1977868;72;21471;-75
2021/09/07 05:34:37;;;;;;;9.33;8.25;;;12.20;99.90;;;;;;1970018;72;21128;-75
2021/09/07 05:37:03;;;;;;;17.48;9.58;;;12.30;99.90;;;;;;1974073;72;21044;-75
2021/09/07 05:39:29;;;;;;;10.45;8.63;;;12.20;99.90;;;;;;1974660;72;21058;-75
2021/09/07 05:41:55;;;;;;;21.45;9.48;;;12.40;99.90;;;;;;1969226;72;21132;-75
2021/09/07 05:44:21;;;;;;;15.53;9.90;;;12.40;99.90;;;;;;1976956;72;21037;-75
2021/09/07 05:46:47;;;;;;;16.73;9.78;;;12.50;99.90;;;;;;1978141;72;21120;-76
2021/09/07 05:49:13;;;;;;;14.87;9.23;;;12.60;99.90;;;;;;1969325;72;21194;-75
2021/09/07 05:51:41;;;;;;;14.00;9.10;;;12.70;99.90;;;;;;1977916;72;21019;-76
2021/09/07 05:54:07;;;;;;;10.45;8.93;;;12.80;99.90;;;;;;1977018;72;21051;-77
2021/09/07 05:56:33;;;;;;;12.70;9.33;;;12.90;99.90;;;;;;1985001;72;21124;-76
2021/09/07 05:58:59;;;;;;;9.10;8.20;;;13.00;99.90;;;;;;1979177;72;21130;-75
2021/09/07 06:01:26;;;;;;;15.15;9.75;;;13.00;99.90;;;;;;1970219;72;21066;-75
2021/09/07 06:03:52;;;;;;;12.28;9.90;;;13.10;99.90;;;;;;1971227;72;21029;-76
2021/09/07 06:06:18;;;;;;;12.95;8.88;;;13.10;99.90;;;;;;1974306;72;21128;-75
2021/09/07 06:08:44;;;;;;;18.05;9.63;;;13.10;99.90;;;;;;1974554;72;21117;-75
2021/09/07 06:11:10;;;;;;;12.73;9.73;;;13.30;99.90;;;;;;1977257;72;21024;-75
2021/09/07 06:13:36;;;;;;;12.40;9.10;;;13.40;99.90;;;;;;1974447;73;21059;-76
2021/09/07 06:16:02;;;;;;;14.98;10.88;;;13.50;99.90;;;;;;1983496;72;21070;-75
2021/09/07 06:18:29;;;;;;;16.77;9.70;;;13.60;99.90;;;;;;1983595;72;21059;-75
2021/09/07 06:20:55;;;;;;;10.90;9.00;;;13.50;99.90;;;;;;1977153;72;21071;-75
2021/09/07 06:23:21;;;;;;;19.98;10.25;;;13.50;99.90;;;;;;1980252;72;21043;-75
2021/09/07 06:25:47;;;;;;;12.82;9.93;;;13.50;99.90;;;;;;1970965;72;21117;-75
2021/09/07 06:28:13;;;;;;;14.80;9.70;;;13.50;99.90;;;;;;1970368;72;21051;-75
2021/09/07 06:30:39;;;;;;;11.93;8.98;;;13.50;99.90;;;;;;1976349;72;21031;-75
2021/09/07 06:33:06;;;;;;;17.52;10.13;;;13.60;99.90;;;;;;1968459;72;21048;-75
2021/09/07 06:35:32;;;;;;;17.02;8.75;;;13.50;99.90;;;;;;1974374;72;21063;-75
2021/09/07 06:37:58;;;;;;;9.93;8.93;;;13.70;99.90;;;;;;1970610;72;21067;-75
2021/09/07 06:40:24;;;;;;;14.73;9.03;;;13.70;99.90;;;;;;1974442;72;21097;-76
2021/09/07 06:42:50;;;;;;;13.80;9.60;;;13.70;99.90;;;;;;1970912;72;21541;-76
2021/09/07 06:45:16;;;;;;;12.45;9.65;;;13.90;99.90;;;;;;1977541;72;21552;-76
2021/09/07 06:47:42;;;;;;;17.00;9.95;;;13.90;99.90;;;;;;1979145;72;21070;-75
2021/09/07 06:50:09;;;;;;;14.43;8.75;;;14.00;99.90;;;;;;1985125;72;21054;-76
2021/09/07 06:52:35;;;;;;;16.37;9.20;;;14.00;99.90;;;;;;1983928;72;21024;-75
2021/09/07 06:55:01;;;;;;;16.87;10.05;;;14.10;99.90;;;;;;1974209;72;21071;-75
2021/09/07 06:57:27;;;;;;;12.50;9.65;;;14.00;99.90;;;;;;1971179;72;21067;-75
2021/09/07 06:59:53;;;;;;;13.43;9.78;;;14.00;99.90;;;;;;1974403;73;21048;-75
2021/09/07 07:02:20;;;;;;;20.08;9.73;;;14.00;99.90;;;;;;1972768;72;21063;-75
2021/09/07 07:04:46;;;;;;;19.40;9.63;;;14.20;99.90;;;;;;1969230;72;21040;-75
2021/09/07 07:07:12;;;;;;;14.93;9.75;;;14.40;99.90;;;;;;1975267;72;21058;-75
2021/09/07 07:09:38;;;;;;;20.43;10.10;;;14.50;99.90;;;;;;1978688;72;21071;-75
2021/09/07 07:12:04;;;;;;;17.37;9.58;;;14.50;99.90;;;;;;1974372;73;21055;-75
2021/09/07 07:14:30;;;;;;;15.15;9.53;;;14.60;99.90;;;;;;1970089;72;21115;-75
2021/09/07 07:16:56;;;;;;;15.80;9.10;;;14.80;99.90;;;;;;1971293;72;21121;-75
2021/09/07 07:19:23;;;;;;;15.05;9.73;;;14.90;99.90;;;;;;1970784;72;21066;-76
2021/09/07 07:21:49;;;;;;;13.40;9.58;;;15.00;99.90;;;;;;1976106;72;21023;-75
2021/09/07 07:24:16;;;;;;;15.38;9.68;;;15.20;99.90;;;;;;1974393;73;21111;-75
2021/09/07 07:26:42;;;;;;;13.68;9.83;;;15.30;99.90;;;;;;1972387;72;21059;-75
2021/09/07 07:29:08;;;;;;;10.15;8.75;;;15.30;99.90;;;;;;1969689;72;21131;-76
2021/09/07 07:31:34;;;;;;;12.47;9.10;;;15.40;99.90;;;;;;1976778;72;21157;-75
2021/09/07 07:34:01;;;;;;;14.03;9.70;;;15.40;99.90;;;;;;1971199;72;21059;-75
2021/09/07 07:36:27;;;;;;;18.23;9.68;;;15.40;99.90;;;;;;1973326;72;21047;-76
2021/09/07 07:38:53;;;;;;;13.65;9.68;;;15.50;99.90;;;;;;1977659;72;21044;-75
2021/09/07 07:41:19;;;;;;;18.12;9.68;;;15.60;99.90;;;;;;1971084;72;21038;-75
2021/09/07 07:43:46;;;;;;;12.10;8.83;;;15.70;99.90;;;;;;1975956;72;21128;-76
2021/09/07 07:46:13;;;;;;;10.90;8.85;;;16.00;99.90;;;;;;1979013;72;21058;-76
2021/09/07 07:48:42;;;;;;;15.05;8.43;;;16.10;99.90;;;;;;1971252;72;21040;-76
2021/09/07 07:51:08;;;;;;;12.75;8.88;;;16.20;99.90;;;;;;1974513;72;21052;-76
2021/09/07 07:53:34;;;;;;;13.90;9.30;;;16.30;99.90;;;;;;1970696;72;21031;-75
2021/09/07 07:56:00;;;;;;;9.70;8.60;;;16.30;99.90;;;;;;1968589;72;21119;-75
2021/09/07 07:58:26;;;;;;;14.83;9.93;;;16.50;99.90;;;;;;1979940;72;21063;-75
2021/09/07 08:00:52;;;;;;;15.23;8.53;;;16.70;99.90;;;;;;1972337;72;21032;-75
2021/09/07 08:03:19;;;;;;;11.85;8.88;;;16.90;99.90;;;;;;1981559;72;21055;-75
2021/09/07 08:05:45;;;;;;;11.05;8.40;;;16.90;99.90;;;;;;1977658;72;21116;-74
2021/09/07 08:08:11;;;;;;;10.93;9.18;;;17.20;99.90;;;;;;1977094;72;21087;-75
2021/09/07 08:10:38;;;;;;;8.53;7.62;;;17.60;99.90;;;;;;1974482;72;21063;-75
2021/09/07 08:13:04;;;;;;;15.93;9.08;;;17.90;99.90;;;;;;1968332;72;21167;-74
2021/09/07 08:15:31;;;;;;;10.55;7.95;;;18.50;99.90;;;;;;1985167;72;21120;-74
2021/09/07 08:17:57;;;;;;;12.43;7.55;;;18.70;99.90;;;;;;1973595;72;21032;-74
2021/09/07 08:20:23;;;;;;;14.40;8.15;;;18.70;99.90;;;;;;1966403;72;21032;-74
2021/09/07 08:22:49;;;;;;;12.23;8.23;;;18.80;99.90;;;;;;1972620;72;21067;-74
2021/09/07 08:25:15;;;;;;;13.20;8.05;;;19.10;99.90;;;;;;1974632;73;21104;-74
2021/09/07 08:27:41;;;;;;;9.35;7.30;;;19.20;99.90;;;;;;1974782;72;21040;-75
2021/09/07 08:30:07;;;;;;;11.95;7.83;;;19.50;99.90;;;;;;1981071;72;21459;-74
2021/09/07 08:32:33;;;;;;;10.88;7.33;;;19.50;99.90;;;;;;1977365;72;21471;-74
2021/09/07 08:35:00;;;;;;;8.88;6.75;;;19.60;99.90;;;;;;1986922;72;21478;-74
2021/09/07 08:37:26;;;;;;;13.53;7.08;;;20.10;99.90;;;;;;1967540;72;21514;-75
2021/09/07 08:39:52;;;;;;;7.75;6.70;;;20.30;99.90;;;;;;1973825;72;21553;-74
2021/09/07 08:42:18;;;;;;;10.43;6.92;;;20.90;99.90;;;;;;1972650;72;21475;-74
2021/09/07 08:44:47;;;;;;;13.65;8.35;;;20.80;99.90;;;;;;1963772;72;21500;-75
2021/09/07 08:47:13;;;;;;;11.08;6.72;;;20.90;99.90;;;;;;1979739;72;21060;-75
2021/09/07 08:49:39;;;;;;;10.13;6.92;;;20.60;99.90;;;;;;1969226;72;21550;-75
2021/09/07 08:52:05;;;;;;;9.08;7.12;;;20.60;99.90;;;;;;1973363;72;21467;-75
2021/09/07 08:54:32;;;;;;;8.25;6.15;;;20.60;99.90;;;;;;1974593;72;21058;-74
2021/09/07 08:56:58;;;;;;;10.60;6.80;;;20.80;99.90;;;;;;1974386;73;21055;-75
2021/09/07 08:59:24;;;;;;;12.55;7.00;;;21.40;99.90;;;;;;1972601;72;21169;-74
2021/09/07 09:01:56;;;;;;;10.78;6.92;;;21.40;99.90;;;;;;1974540;73;21023;-72
2021/09/07 09:04:21;;;;;;;9.43;6.78;;;21.70;99.90;;;;;;1970565;72;21076;-73
2021/09/07 09:06:47;;;;;;;8.65;6.28;;;21.40;99.90;;;;;;1982010;72;21063;-74
2021/09/07 09:09:13;;;;;;;7.53;5.78;;;21.40;99.90;;;;;;1972762;72;21064;-74
2021/09/07 09:11:39;;;;;;;11.93;8.03;;;21.40;99.90;;;;;;1973227;72;21063;-75
2021/09/07 09:14:05;;;;;;;9.60;6.22;;;21.90;99.90;;;;;;1978652;72;21079;-75
2021/09/07 09:16:32;;;;;;;10.28;6.08;;;21.90;99.90;;;;;;1972824;72;21061;-74
2021/09/07 09:18:58;;;;;;;9.60;5.62;;;22.30;99.90;;;;;;1975857;72;21062;-74
2021/09/07 09:21:25;;;;;;;12.33;5.67;;;22.60;99.90;;;;;;1977392;72;21113;-75
2021/09/07 09:23:51;;;;;;;8.23;6.40;;;23.00;99.90;;;;;;1970390;72;21066;-75
2021/09/07 09:26:17;;;;;;;8.30;5.70;;;23.00;99.90;;;;;;1973017;72;21448;-74
2021/09/07 09:28:43;;;;;;;8.35;5.70;;;22.80;99.90;;;;;;1974833;72;21513;-75
2021/09/07 09:31:09;;;;;;;7.08;5.87;;;22.80;99.90;;;;;;1974496;73;21537;-75
2021/09/07 09:33:36;;;;;;;10.68;5.97;;;22.90;99.90;;;;;;1971907;72;21450;-76
2021/09/07 09:36:03;;;;;;;16.95;6.40;;;23.20;99.90;;;;;;1976675;72;21067;-75
2021/09/07 09:38:29;;;;;;;13.65;6.62;;;23.30;99.90;;;;;;1972852;72;21059;-75
2021/09/07 09:40:55;;;;;;;9.83;6.22;;;23.50;99.90;;;;;;1972258;72;21101;-75
2021/09/07 09:43:21;;;;;;;10.93;6.20;;;23.80;99.90;;;;;;1970873;72;21194;-75
2021/09/07 09:45:47;;;;;;;8.85;5.55;;;24.00;99.90;;;;;;1970835;72;21055;-75
2021/09/07 09:48:13;;;;;;;7.45;5.83;;;23.60;99.90;;;;;;1970695;72;21133;-75
2021/09/07 09:50:42;;;;;;;6.47;5.65;;;24.10;99.90;;;;;;1971995;72;21075;-75
2021/09/07 09:53:08;;;;;;;8.45;5.72;;;24.10;99.90;;;;;;1973280;72;21063;-76
2021/09/07 09:55:34;;;;;;;7.55;5.40;;;24.20;99.90;;;;;;1974491;73;21087;-76
2021/09/07 09:58:00;;;;;;;7.55;4.97;;;24.30;99.90;;;;;;1971885;72;21470;-76
2021/09/07 10:00:26;;;;;;;7.55;5.47;;;24.50;99.90;;;;;;1980040;72;21510;-76
2021/09/07 10:02:58;;;;;;;7.45;5.35;;;24.90;99.90;;;;;;1973995;72;21542;-76
2021/09/07 10:05:20;;;;;;;8.98;5.25;;;25.80;99.90;;;;;;1973618;72;21072;-76
2021/09/07 10:07:46;;;;;;;6.22;5.00;;;26.00;99.90;;;;;;1968032;72;21116;-75
2021/09/07 10:10:12;;;;;;;8.10;5.20;;;25.40;99.90;;;;;;1975404;72;21067;-75
2021/09/07 10:12:41;;;;;;;6.70;4.70;;;25.80;99.90;;;;;;1972362;72;21115;-74
2021/09/07 10:15:10;;;;;;;6.60;5.22;;;25.90;99.90;;;;;;1982886;72;21043;-73
2021/09/07 10:17:43;;;;;;;13.30;5.25;;;25.40;99.90;;;;;;1980653;72;21205;-74
2021/09/07 10:20:15;;;;;;;7.87;5.22;;;25.20;99.90;;;;;;1982014;72;21084;-74
2021/09/07 10:25:22;;;;;;;10.70;5.00;;;25.10;99.90;;;;;;1967453;72;21125;-75
2021/09/07 10:27:48;;;;;;;5.12;4.62;;;25.80;99.90;;;;;;1972456;72;21117;-75
2021/09/07 10:30:14;;;;;;;6.12;5.03;;;26.40;99.90;;;;;;1981238;72;21125;-75
2021/09/07 10:32:41;;;;;;;6.58;4.87;;;27.10;99.90;;;;;;1978376;72;21054;-75
2021/09/07 10:35:07;;;;;;;5.33;4.65;;;26.90;99.90;;;;;;1975590;72;21055;-75
2021/09/07 10:37:33;;;;;;;10.70;5.15;;;26.50;99.90;;;;;;1971572;72;21072;-75
2021/09/07 10:39:59;;;;;;;6.22;4.90;;;26.70;99.90;;;;;;1974494;72;21056;-75
2021/09/07 10:42:25;;;;;;;5.40;4.60;;;26.80;99.90;;;;;;1973006;72;21123;-75
2021/09/07 10:44:52;;;;;;;9.50;5.08;;;26.80;99.90;;;;;;1976097;72;21469;-75
2021/09/07 10:47:18;;;;;;;5.35;4.53;;;27.00;99.90;;;;;;1977368;72;21569;-75
2021/09/07 10:49:44;;;;;;;7.10;4.97;;;27.10;99.90;;;;;;1967421;72;21463;-75
2021/09/07 10:52:10;;;;;;;4.50;4.10;;;27.10;99.90;;;;;;1971037;72;21511;-75
2021/09/07 10:54:37;;;;;;;7.28;4.03;;;26.80;99.90;;;;;;1973700;72;21062;-75
2021/09/07 10:57:03;;;;;;;4.40;4.00;;;26.80;99.90;;;;;;1984925;72;21055;-75
2021/09/07 10:59:29;;;;;;;5.62;4.85;;;27.40;99.90;;;;;;1985854;72;21031;-75
2021/09/07 11:01:55;;;;;;;6.20;4.70;;;28.00;99.90;;;;;;1974454;72;21150;-75
2021/09/07 11:04:21;;;;;;;6.70;4.60;;;28.00;99.90;;;;;;1974626;73;21076;-75
2021/09/07 11:06:47;;;;;;;4.45;4.03;;;27.60;99.90;;;;;;1973984;72;21113;-73
2021/09/07 11:09:13;;;;;;;7.55;4.50;;;27.40;99.90;;;;;;1970816;72;21063;-74
2021/09/07 11:11:39;;;;;;;6.42;4.50;;;27.10;99.90;;;;;;1972528;72;21071;-74
2021/09/07 11:14:06;;;;;;;5.08;4.10;;;27.10;99.90;;;;;;1975775;72;21172;-74
2021/09/07 11:16:32;;;;;;;6.58;4.42;;;27.10;99.90;;;;;;1975619;72;21136;-74
2021/09/07 11:18:58;;;;;;;5.95;4.22;;;27.50;99.90;;;;;;1971817;72;21050;-74
2021/09/07 11:21:24;;;;;;;5.17;3.95;;;27.90;99.90;;;;;;1974349;73;21105;-74
2021/09/07 11:23:50;;;;;;;8.33;5.08;;;28.40;99.90;;;;;;1970972;72;21101;-74
2021/09/07 11:26:16;;;;;;;4.83;3.80;;;29.00;99.90;;;;;;1972568;72;21124;-74
2021/09/07 11:28:42;;;;;;;4.17;3.77;;;29.20;97.90;;;;;;1975212;72;21545;-74
2021/09/07 11:31:09;;;;;;;5.78;4.65;;;29.10;98.10;;;;;;1972327;72;21124;-74
2021/09/07 11:33:35;;;;;;;4.50;4.03;;;29.80;96.60;;;;;;1978658;72;21136;-73
2021/09/07 11:36:01;;;;;;;6.60;4.17;;;29.50;96.40;;;;;;1974113;72;21066;-74
2021/09/07 11:38:28;;;;;;;5.45;4.40;;;29.60;95.40;;;;;;1974251;72;21036;-74
2021/09/07 11:40:54;;;;;;;4.97;4.00;;;29.40;95.80;;;;;;1976775;72;21051;-74
2021/09/07 11:43:21;;;;;;;6.95;4.33;;;29.50;95.10;;;;;;1976976;72;21132;-74
2021/09/07 11:45:47;;;;;;;4.28;3.83;;;29.40;92.80;;;;;;1976255;72;21483;-75
2021/09/07 11:48:13;;;;;;;3.98;3.58;;;29.30;91.80;;;;;;1978323;72;21453;-74
2021/09/07 11:50:39;;;;;;;7.83;3.90;;;29.40;91.30;;;;;;1978817;72;21420;-74
2021/09/07 11:53:06;;;;;;;5.05;3.75;;;29.30;91.50;;;;;;1973610;72;21108;-74
2021/09/07 11:55:32;;;;;;;4.00;3.70;;;29.60;89.60;;;;;;1974264;72;21071;-74
2021/09/07 11:57:58;;;;;;;3.92;3.52;;;29.80;87.00;;;;;;1967263;72;21071;-74
2021/09/07 12:00:24;;;;;;;4.85;4.33;;;29.50;87.80;;;;;;1970671;72;21461;-74
2021/09/07 12:02:51;;;;;;;6.35;4.37;;;29.70;88.30;;;;;;1970607;72;21427;-74
2021/09/07 12:05:17;;;;;;;4.15;3.75;;;29.70;86.70;;;;;;1980414;72;21459;-74
2021/09/07 12:07:43;;;;;;;8.88;3.67;;;30.00;86.80;;;;;;1970954;72;21492;-74
2021/09/07 12:10:09;;;;;;;5.37;3.62;;;30.50;85.20;;;;;;1978171;72;21498;-74
2021/09/07 12:12:36;;;;;;;5.78;3.83;;;29.90;85.70;;;;;;1982027;72;21474;-74
2021/09/07 12:15:02;;;;;;;5.25;3.70;;;28.80;87.50;;;;;;1977782;72;21124;-74
2021/09/07 12:17:28;;;;;;;4.65;3.80;;;28.70;88.80;;;;;;1970433;72;21071;-74
2021/09/07 12:19:55;;;;;;;5.20;4.20;;;29.30;89.20;;;;;;1970516;72;21051;-74
2021/09/07 12:22:21;;;;;;;6.33;4.12;;;29.70;86.90;;;;;;1973791;72;21467;-74
2021/09/07 12:24:47;;;;;;;5.10;4.15;;;29.90;86.00;;;;;;1971877;72;21433;-74
2021/09/07 12:27:13;;;;;;;6.35;3.75;;;30.10;84.80;;;;;;1982895;72;21067;-74
2021/09/07 12:29:39;;;;;;;5.72;4.00;;;30.30;85.50;;;;;;1965520;72;21112;-74
2021/09/07 12:32:05;;;;;;;4.92;3.60;;;30.80;85.30;;;;;;1976957;72;21106;-74
2021/09/07 12:34:31;;;;;;;32.75;4.05;;;30.80;85.30;;;;;;1972972;72;21028;-74
2021/09/07 12:36:58;;;;;;;7.28;3.45;;;30.70;85.80;;;;;;1980949;72;21050;-74